createdAt,value
2022-08-26T00:02:08.030Z,100388.00
2022-08-26T00:04:36.886Z,100389.94
2022-08-26T00:07:06.278Z,100402.84
2022-08-26T00:09:39.051Z,100420.25
2022-08-26T00:12:12.398Z,100417.56
2022-08-26T00:14:41.453Z,100414.88
2022-08-26T00:17:10.587Z,100384.75
2022-08-26T00:19:50.854Z,100404.56
2022-08-26T00:22:21.765Z,100412.94
2022-08-26T00:24:50.509Z,100412.81
2022-08-26T00:27:19.474Z,100407.72
2022-08-26T00:29:49.524Z,100427.16
2022-08-26T00:32:19.345Z,100420.63
2022-08-26T00:34:48.316Z,100425.97
2022-08-26T00:37:17.284Z,100434.44
2022-08-26T00:39:46.203Z,100416.84
2022-08-26T00:42:15.003Z,100436.28
2022-08-26T00:44:44.586Z,100415.75
2022-08-26T00:47:31.041Z,100410.75
2022-08-26T00:50:03.644Z,100424.25
2022-08-26T00:52:32.757Z,100424.84
2022-08-26T00:55:14.645Z,100424.84
2022-08-26T00:57:51.294Z,100433.25
2022-08-26T01:00:25.847Z,100422.44
2022-08-26T01:02:56.807Z,100433.13
2022-08-26T01:05:26.496Z,100395.56
2022-08-26T01:07:55.085Z,100455.97
2022-08-26T01:10:27.803Z,100436.16
2022-08-26T01:13:03.784Z,100446.13
2022-08-26T01:15:36.547Z,100441.50
2022-08-26T01:18:06.329Z,100462.66
2022-08-26T01:20:58.828Z,100465.06
2022-08-26T01:23:39.102Z,100457.28
2022-08-26T01:26:19.447Z,100454.56
2022-08-26T01:28:51.955Z,100457.78
2022-08-26T01:31:29.221Z,100437.56
2022-08-26T01:34:07.225Z,100428.91
2022-08-26T01:36:39.659Z,100445.53
2022-08-26T01:39:09.242Z,100398.94
2022-08-26T01:41:42.948Z,100455.25
2022-08-26T01:44:19.698Z,100401.25
2022-08-26T01:46:52.015Z,100440.72
2022-08-26T01:49:22.642Z,100451.78
2022-08-26T01:51:58.295Z,100433.34
2022-08-26T01:54:27.365Z,100448.88
2022-08-26T01:56:56.476Z,100440.97
2022-08-26T01:59:26.680Z,100406.31
2022-08-26T02:01:55.257Z,100432.41
2022-08-26T02:04:34.566Z,100440.41
2022-08-26T02:07:08.952Z,100465.78
2022-08-26T02:09:41.842Z,100465.44
2022-08-26T02:12:12.925Z,100458.00
2022-08-26T02:14:51.282Z,100467.88
2022-08-26T02:17:26.756Z,100475.25
2022-08-26T02:19:57.339Z,100444.13
2022-08-26T02:22:28.651Z,100479.78
2022-08-26T02:25:00.276Z,100449.63
2022-08-26T02:27:33.363Z,100460.63
2022-08-26T02:30:10.399Z,100472.16
2022-08-26T02:32:41.582Z,100480.50
2022-08-26T02:35:13.400Z,100475.66
2022-08-26T02:37:46.685Z,100475.72
2022-08-26T02:40:25.796Z,100479.25
2022-08-26T02:42:56.926Z,100484.13
2022-08-26T02:45:28.291Z,100474.31
2022-08-26T02:47:59.608Z,100421.66
2022-08-26T02:50:28.430Z,100486.81
2022-08-26T02:52:57.745Z,100467.00
2022-08-26T02:55:28.041Z,100478.03
2022-08-26T02:57:57.889Z,100491.34
2022-08-26T03:00:28.174Z,100492.03
2022-08-26T03:02:57.271Z,100490.97
2022-08-26T03:05:26.203Z,100484.50
2022-08-26T03:07:54.983Z,100472.16
2022-08-26T03:10:23.708Z,100480.72
2022-08-26T03:12:54.705Z,100490.19
2022-08-26T03:15:23.162Z,100489.78
2022-08-26T03:17:51.707Z,100456.94
2022-08-26T03:20:20.567Z,100503.22
2022-08-26T03:22:52.112Z,100490.09
2022-08-26T03:25:22.855Z,100488.72
2022-08-26T03:27:53.740Z,100482.75
2022-08-26T03:30:44.931Z,100488.53
2022-08-26T03:33:15.929Z,100504.31
2022-08-26T03:35:45.895Z,100499.69
2022-08-26T03:38:15.555Z,100509.28
2022-08-26T03:40:44.629Z,100492.09
2022-08-26T03:43:15.012Z,100506.28
2022-08-26T03:45:44.275Z,100497.50
2022-08-26T03:48:14.444Z,100488.25
2022-08-26T03:50:43.544Z,100491.97
2022-08-26T03:53:13.470Z,100501.97
2022-08-26T03:55:43.204Z,100512.00
2022-08-26T03:58:12.343Z,100522.81
2022-08-26T04:00:40.732Z,100509.44
2022-08-26T04:03:10.413Z,100515.53
2022-08-26T04:05:39.165Z,100503.88
2022-08-26T04:08:08.468Z,100511.53
2022-08-26T04:10:39.166Z,100529.03
2022-08-26T04:13:08.016Z,100504.63
2022-08-26T04:15:36.667Z,100510.75
2022-08-26T04:18:05.441Z,100512.78
2022-08-26T04:20:34.293Z,100521.41
2022-08-26T04:23:03.028Z,100512.09
2022-08-26T04:25:34.714Z,100469.97
2022-08-26T04:28:04.663Z,100504.81
2022-08-26T04:30:33.346Z,100507.53
2022-08-26T04:33:12.921Z,100486.88
2022-08-26T04:35:43.166Z,100534.59
2022-08-26T04:38:14.273Z,100524.78
2022-08-26T04:40:47.398Z,100515.28
2022-08-26T04:43:16.202Z,100511.91
2022-08-26T04:45:44.895Z,100522.75
2022-08-26T04:48:16.938Z,100509.69
2022-08-26T04:50:49.636Z,100520.56
2022-08-26T04:53:18.390Z,100507.66
2022-08-26T04:55:48.467Z,100519.53
2022-08-26T04:58:19.288Z,100528.00
2022-08-26T05:00:49.963Z,100511.53
2022-08-26T05:03:20.133Z,100530.16
2022-08-26T05:05:52.963Z,100498.03
2022-08-26T05:08:23.525Z,100511.91
2022-08-26T05:10:57.762Z,100521.94
2022-08-26T05:13:28.749Z,100524.97
2022-08-26T05:15:59.146Z,100511.75
2022-08-26T05:18:31.045Z,100524.91
2022-08-26T05:20:59.723Z,100533.69
2022-08-26T05:23:29.589Z,100493.22
2022-08-26T05:26:00.366Z,100516.97
2022-08-26T05:28:30.807Z,100484.41
2022-08-26T05:30:59.452Z,100482.72
2022-08-26T05:33:28.503Z,100464.75
2022-08-26T05:35:57.134Z,100475.88
2022-08-26T05:38:25.724Z,100499.09
2022-08-26T05:40:59.677Z,100469.34
2022-08-26T05:43:28.393Z,100503.47
2022-08-26T05:45:58.237Z,100487.13
2022-08-26T05:48:27.556Z,100482.47
2022-08-26T05:50:56.899Z,100494.72
2022-08-26T05:53:26.307Z,100477.34
2022-08-26T05:55:58.153Z,100488.63
2022-08-26T05:58:28.356Z,100443.03
2022-08-26T06:01:11.163Z,100500.69
2022-08-26T06:03:43.125Z,100491.16
2022-08-26T06:06:15.000Z,100471.63
2022-08-26T06:08:49.043Z,100483.66
2022-08-26T06:11:20.845Z,100455.75
2022-08-26T06:13:49.329Z,100467.81
2022-08-26T06:16:20.223Z,100477.63
2022-08-26T06:18:51.547Z,100469.03
2022-08-26T06:21:28.724Z,100463.94
2022-08-26T06:24:21.873Z,100479.94
2022-08-26T06:26:58.544Z,100489.72
2022-08-26T06:29:28.053Z,100462.88
2022-08-26T06:31:58.642Z,100463.66
2022-08-26T06:34:32.032Z,100466.91
2022-08-26T06:37:06.762Z,100482.09
2022-08-26T06:39:35.745Z,100445.66
2022-08-26T06:42:09.290Z,100472.84
2022-08-26T06:44:40.994Z,100452.84
2022-08-26T06:47:09.747Z,100459.66
2022-08-26T06:49:38.404Z,100436.34
2022-08-26T06:52:08.327Z,100447.88
2022-08-26T06:54:38.758Z,100470.00
2022-08-26T06:57:08.044Z,100469.25
2022-08-26T06:59:36.994Z,100472.81
2022-08-26T07:02:06.757Z,100447.03
2022-08-26T07:04:37.131Z,100467.56
2022-08-26T07:07:06.017Z,100454.31
2022-08-26T07:09:38.253Z,100464.31
2022-08-26T07:12:07.442Z,100447.94
2022-08-26T07:14:36.434Z,100466.91
2022-08-26T07:17:07.358Z,100442.34
2022-08-26T07:19:38.697Z,100446.94
2022-08-26T07:22:08.720Z,100449.47
2022-08-26T07:24:42.664Z,100456.00
2022-08-26T07:27:15.741Z,100466.28
2022-08-26T07:29:45.450Z,100460.63
2022-08-26T07:32:15.985Z,100447.41
2022-08-26T07:34:44.698Z,100451.63
2022-08-26T07:37:13.272Z,100456.72
2022-08-26T07:39:43.146Z,100437.66
2022-08-26T07:42:14.834Z,100436.16
2022-08-26T07:44:46.177Z,100455.78
2022-08-26T07:47:24.660Z,100432.78
2022-08-26T07:49:58.433Z,100449.03
2022-08-26T07:52:30.217Z,100440.03
2022-08-26T07:55:01.302Z,100441.81
2022-08-26T07:57:31.267Z,100437.22
2022-08-26T08:00:00.350Z,100421.19
2022-08-26T08:02:30.198Z,100449.22
2022-08-26T08:04:59.312Z,100419.50
2022-08-26T08:07:38.785Z,100445.75
2022-08-26T08:10:20.846Z,100414.88
2022-08-26T08:12:51.156Z,100443.66
2022-08-26T08:15:24.889Z,100433.53
2022-08-26T08:17:54.762Z,100433.41
2022-08-26T08:20:27.194Z,100430.22
2022-08-26T08:22:56.840Z,100425.44
2022-08-26T08:25:26.354Z,100415.38
2022-08-26T08:27:54.814Z,100415.50
2022-08-26T08:30:23.744Z,100416.09
2022-08-26T08:32:53.398Z,100415.13
2022-08-26T08:35:24.366Z,100422.56
2022-08-26T08:37:55.573Z,100430.78
2022-08-26T08:40:29.358Z,100430.69
2022-08-26T08:43:14.512Z,100411.50
2022-08-26T08:46:01.194Z,100410.94
2022-08-26T08:48:36.404Z,100419.66
2022-08-26T08:51:07.400Z,100413.06
2022-08-26T08:53:43.195Z,100391.22
2022-08-26T08:56:40.824Z,100387.81
2022-08-26T08:59:26.591Z,100360.22
2022-08-26T09:02:41.012Z,100376.78
2022-08-26T09:05:26.085Z,100387.00
2022-08-26T09:08:06.500Z,100401.91
2022-08-26T09:10:40.951Z,100411.78
2022-08-26T09:13:17.025Z,100381.97
2022-08-26T09:16:19.024Z,100402.41
2022-08-26T09:18:49.003Z,100398.31
2022-08-26T09:21:20.049Z,100396.06
2022-08-26T09:23:49.748Z,100378.19
2022-08-26T09:26:25.972Z,100393.84
2022-08-26T09:29:12.164Z,100388.25
2022-08-26T09:31:43.533Z,100393.28
2022-08-26T09:34:27.442Z,100386.16
2022-08-26T09:36:58.944Z,100379.25
2022-08-26T09:39:38.045Z,100379.25
2022-08-26T09:42:16.726Z,100391.41
2022-08-26T09:44:56.303Z,100377.56
2022-08-26T09:47:40.596Z,100347.63
2022-08-26T09:50:28.854Z,100373.81
2022-08-26T09:53:13.407Z,100372.28
2022-08-26T09:55:44.684Z,100371.47
2022-08-26T09:58:16.451Z,100360.19
2022-08-26T10:00:57.998Z,100348.78
2022-08-26T10:03:31.724Z,100346.44
2022-08-26T10:06:03.684Z,100332.72
2022-08-26T10:08:37.101Z,100346.59
2022-08-26T10:11:27.493Z,100342.75
2022-08-26T10:14:01.572Z,100314.75
2022-08-26T10:16:49.643Z,100329.66
2022-08-26T10:19:29.274Z,100322.03
2022-08-26T10:22:21.720Z,100330.25
2022-08-26T10:24:57.068Z,100339.44
2022-08-26T10:27:51.235Z,100318.59
2022-08-26T10:30:26.574Z,100318.75
2022-08-26T10:33:04.538Z,100318.69
2022-08-26T10:35:36.260Z,100312.31
2022-08-26T10:38:20.730Z,100306.66
2022-08-26T10:41:13.102Z,100318.69
2022-08-26T10:44:08.482Z,100300.25
2022-08-26T10:46:50.134Z,100308.75
2022-08-26T10:49:20.384Z,100283.66
2022-08-26T10:52:24.393Z,100291.88
2022-08-26T10:55:06.835Z,100309.94
2022-08-26T10:57:54.704Z,100269.03
2022-08-26T11:00:52.709Z,100284.25
2022-08-26T11:03:42.212Z,100307.16
2022-08-26T11:06:19.690Z,100291.66
2022-08-26T11:09:03.524Z,100284.25
2022-08-26T11:11:41.537Z,100298.28
2022-08-26T11:14:28.442Z,100287.41
2022-08-26T11:16:59.373Z,100248.28
2022-08-26T11:19:58.872Z,100284.53
2022-08-26T11:22:33.491Z,100278.44
2022-08-26T11:25:09.565Z,100228.81
2022-08-26T11:27:40.896Z,100276.16
2022-08-26T11:30:18.662Z,100279.91
2022-08-26T11:32:58.821Z,100229.78
2022-08-26T11:35:28.232Z,100269.66
2022-08-26T11:38:04.386Z,100256.94
2022-08-26T11:40:36.069Z,100274.56
2022-08-26T11:43:24.804Z,100261.56
2022-08-26T11:46:09.579Z,100243.00
2022-08-26T11:48:44.067Z,100239.91
2022-08-26T11:51:24.688Z,100253.56
2022-08-26T11:54:12.816Z,100235.44
2022-08-26T11:56:43.752Z,100226.63
2022-08-26T11:59:16.338Z,100243.38
2022-08-26T12:01:49.658Z,100226.06
2022-08-26T12:04:29.300Z,100237.75
2022-08-26T12:06:59.579Z,100243.66
2022-08-26T12:09:37.938Z,100220.78
2022-08-26T12:12:24.906Z,100238.41
2022-08-26T12:15:14.443Z,100251.97
2022-08-26T12:17:44.712Z,100237.47
2022-08-26T12:20:46.594Z,100240.94
2022-08-26T12:23:37.923Z,100215.00
2022-08-26T12:26:16.379Z,100233.91
2022-08-26T12:29:12.646Z,100199.53
2022-08-26T12:31:50.442Z,100233.34
2022-08-26T12:34:19.631Z,100218.16
2022-08-26T12:36:51.636Z,100215.63
2022-08-26T12:39:30.569Z,100230.69
2022-08-26T12:42:01.860Z,100207.19
2022-08-26T12:44:53.707Z,100226.84
2022-08-26T12:47:39.015Z,100214.22
2022-08-26T12:50:19.022Z,100222.69
2022-08-26T12:53:03.519Z,100222.38
2022-08-26T12:55:44.434Z,100205.59
2022-08-26T12:58:12.982Z,100221.81
2022-08-26T13:01:02.635Z,100220.84
2022-08-26T13:03:43.949Z,100223.75
2022-08-26T13:06:26.512Z,100229.41
2022-08-26T13:09:10.344Z,100229.31
2022-08-26T13:11:41.872Z,100227.50
2022-08-26T13:14:12.040Z,100225.81
2022-08-26T13:16:50.313Z,100206.22
2022-08-26T13:19:23.555Z,100206.78
2022-08-26T13:21:55.536Z,100196.66
2022-08-26T13:24:28.326Z,100190.47
2022-08-26T13:26:57.152Z,100190.50
2022-08-26T13:29:26.215Z,100194.91
2022-08-26T13:31:55.334Z,100192.75
2022-08-26T13:34:24.886Z,100197.38
2022-08-26T13:36:55.507Z,100174.25
2022-08-26T13:39:24.462Z,100184.59
2022-08-26T13:41:53.655Z,100206.88
2022-08-26T13:44:22.519Z,100186.50
2022-08-26T13:46:51.155Z,100184.81
2022-08-26T13:49:19.976Z,100196.81
2022-08-26T13:51:48.693Z,100182.50
2022-08-26T13:54:17.407Z,100198.56
2022-08-26T13:56:46.301Z,100154.69
2022-08-26T13:59:14.893Z,100182.09
2022-08-26T14:01:43.820Z,100178.34
2022-08-26T14:04:12.730Z,100172.59
2022-08-26T14:06:41.325Z,100184.75
2022-08-26T14:09:11.501Z,100180.34
2022-08-26T14:11:54.144Z,100195.19
2022-08-26T14:14:23.605Z,100152.03
2022-08-26T14:16:59.558Z,100190.50
2022-08-26T14:19:32.184Z,100185.56
2022-08-26T14:22:01.505Z,100177.41
2022-08-26T14:24:31.166Z,100150.44
2022-08-26T14:27:00.202Z,100204.75
2022-08-26T14:29:29.377Z,100194.66
2022-08-26T14:31:59.452Z,100158.69
2022-08-26T14:34:28.185Z,100197.47
2022-08-26T14:36:56.590Z,100197.88
2022-08-26T14:39:25.110Z,100161.34
2022-08-26T14:41:57.141Z,100199.81
2022-08-26T14:44:28.967Z,100199.66
2022-08-26T14:46:57.771Z,100194.03
2022-08-26T14:49:28.060Z,100180.88
2022-08-26T14:51:57.018Z,100177.53
2022-08-26T14:54:25.646Z,100215.31
2022-08-26T14:56:58.421Z,100200.78
2022-08-26T14:59:36.455Z,100199.84
2022-08-26T15:02:08.004Z,100196.31
2022-08-26T15:04:36.574Z,100210.09
2022-08-26T15:07:06.290Z,100208.97
2022-08-26T15:09:38.140Z,100209.00
2022-08-26T15:12:07.214Z,100205.78
2022-08-26T15:14:35.836Z,100189.41
2022-08-26T15:17:05.381Z,100197.03
2022-08-26T15:19:33.984Z,100204.81
2022-08-26T15:22:02.630Z,100183.75
2022-08-26T15:24:31.115Z,100205.81
2022-08-26T15:26:59.907Z,100206.09
2022-08-26T15:29:28.449Z,100154.34
2022-08-26T15:31:57.640Z,100174.94
2022-08-26T15:34:27.120Z,100196.00
2022-08-26T15:36:55.979Z,100212.81
2022-08-26T15:39:24.984Z,100180.69
2022-08-26T15:41:53.465Z,100202.31
2022-08-26T15:44:21.945Z,100185.19
2022-08-26T15:46:52.516Z,100221.22
2022-08-26T15:49:24.348Z,100215.03
2022-08-26T15:51:53.359Z,100193.09
2022-08-26T15:54:23.610Z,100196.66
2022-08-26T15:56:53.811Z,100195.47
2022-08-26T15:59:23.262Z,100219.50
2022-08-26T16:01:53.194Z,100220.38
2022-08-26T16:04:22.261Z,100223.75
2022-08-26T16:06:52.601Z,100216.13
2022-08-26T16:09:24.478Z,100221.50
2022-08-26T16:11:54.902Z,100198.97
2022-08-26T16:14:24.374Z,100168.88
2022-08-26T16:16:53.053Z,100221.06
2022-08-26T16:19:22.154Z,100223.75
2022-08-26T16:21:52.201Z,100209.38
2022-08-26T16:24:28.424Z,100207.25
2022-08-26T16:26:59.339Z,100191.44
2022-08-26T16:29:28.320Z,100223.81
2022-08-26T16:31:57.001Z,100202.19
2022-08-26T16:34:25.733Z,100210.81
2022-08-26T16:36:54.472Z,100209.69
2022-08-26T16:39:23.201Z,100217.56
2022-08-26T16:41:51.963Z,100215.50
2022-08-26T16:44:20.679Z,100208.53
2022-08-26T16:46:54.572Z,100210.13
2022-08-26T16:49:27.601Z,100196.25
2022-08-26T16:51:56.240Z,100171.19
2022-08-26T16:54:24.986Z,100195.34
2022-08-26T16:56:53.322Z,100201.28
2022-08-26T16:59:22.581Z,100170.31
2022-08-26T17:01:52.174Z,100180.47
2022-08-26T17:04:20.895Z,100162.34
2022-08-26T17:06:49.992Z,100136.38
2022-08-26T17:09:20.859Z,100170.50
2022-08-26T17:11:49.720Z,100157.59
2022-08-26T17:14:18.740Z,100117.66
2022-08-26T17:16:52.037Z,100171.31
2022-08-26T17:19:22.405Z,100159.09
2022-08-26T17:21:51.035Z,100138.09
2022-08-26T17:24:19.923Z,100154.59
2022-08-26T17:26:50.019Z,100165.75
2022-08-26T17:29:22.252Z,100171.38
2022-08-26T17:31:50.915Z,100146.63
2022-08-26T17:34:20.027Z,100151.41
2022-08-26T17:36:48.736Z,100085.78
2022-08-26T17:39:17.603Z,100114.63
2022-08-26T17:41:46.276Z,100147.75
2022-08-26T17:44:14.750Z,100135.03
2022-08-26T17:46:43.364Z,100152.81
2022-08-26T17:49:12.127Z,100128.22
2022-08-26T17:51:41.562Z,100122.88
2022-08-26T17:54:10.270Z,100144.84
2022-08-26T17:56:39.043Z,100134.88
2022-08-26T17:59:07.639Z,100134.13
2022-08-26T18:01:36.773Z,100130.84
2022-08-26T18:04:05.484Z,100141.56
2022-08-26T18:06:35.675Z,100155.41
2022-08-26T18:09:04.665Z,100098.84
2022-08-26T18:11:34.216Z,100126.88
2022-08-26T18:14:02.754Z,100147.75
2022-08-26T18:16:34.753Z,100154.94
2022-08-26T18:19:03.943Z,100151.28
2022-08-26T18:21:33.050Z,100140.00
2022-08-26T18:24:01.972Z,100135.03
2022-08-26T18:26:37.007Z,100122.75
2022-08-26T18:29:07.496Z,100123.59
2022-08-26T18:31:38.233Z,100113.94
2022-08-26T18:34:08.911Z,100136.88
2022-08-26T18:36:38.000Z,100117.72
2022-08-26T18:39:08.781Z,100102.91
2022-08-26T18:41:47.124Z,100119.53
2022-08-26T18:44:17.394Z,100105.94
2022-08-26T18:46:47.092Z,100109.25
2022-08-26T18:49:17.329Z,100090.34
2022-08-26T18:51:48.316Z,100103.66
2022-08-26T18:56:46.613Z,100119.81
2022-08-26T18:59:15.615Z,100123.22
2022-08-26T19:01:44.745Z,100108.16
2022-08-26T19:04:14.771Z,100109.59
2022-08-26T19:06:48.316Z,100113.69
2022-08-26T19:09:18.692Z,100103.63
2022-08-26T19:11:50.577Z,100104.00
2022-08-26T19:14:19.975Z,100080.84
2022-08-26T19:16:50.599Z,100102.03
2022-08-26T19:19:21.237Z,100100.47
2022-08-26T19:21:50.065Z,100104.97
2022-08-26T19:24:20.233Z,100089.44
2022-08-26T19:26:57.582Z,100101.69
2022-08-26T19:29:31.655Z,100104.13
2022-08-26T19:32:00.498Z,100073.78
2022-08-26T19:34:29.044Z,100095.91
2022-08-26T19:36:59.343Z,100064.94
2022-08-26T19:39:29.123Z,100087.25
2022-08-26T19:41:58.182Z,100096.34
2022-08-26T19:44:45.833Z,100088.47
2022-08-26T19:47:14.843Z,100081.81
2022-08-26T19:49:44.020Z,100079.47
2022-08-26T19:52:13.667Z,100071.06
2022-08-26T19:54:42.209Z,100065.59
2022-08-26T19:57:11.725Z,100034.28
2022-08-26T19:59:41.019Z,100053.06
2022-08-26T20:02:11.280Z,100085.41
2022-08-26T20:04:42.761Z,100083.00
2022-08-26T20:07:14.196Z,100068.03
2022-08-26T20:09:48.059Z,100069.47
2022-08-26T20:12:18.151Z,100071.97
2022-08-26T20:14:46.880Z,100074.72
2022-08-26T20:17:17.793Z,100073.06
2022-08-26T20:20:04.918Z,100062.63
2022-08-26T20:22:34.298Z,100058.97
2022-08-26T20:25:03.506Z,100071.19
2022-08-26T20:27:38.394Z,100035.28
2022-08-26T20:30:09.759Z,100045.38
2022-08-26T20:32:40.268Z,100062.34
2022-08-26T20:35:12.605Z,100072.38
2022-08-26T20:37:42.235Z,100089.34
2022-08-26T20:40:13.054Z,100066.19
2022-08-26T20:42:41.770Z,100101.09
2022-08-26T20:45:10.673Z,100088.16
2022-08-26T20:47:39.222Z,100087.44
2022-08-26T20:50:09.276Z,100087.44
2022-08-26T20:52:37.767Z,100086.72
2022-08-26T20:55:07.321Z,100095.91
2022-08-26T20:57:35.733Z,100067.78
2022-08-26T21:00:07.029Z,100088.84
2022-08-26T21:02:35.524Z,100060.47
2022-08-26T21:05:05.004Z,100098.47
2022-08-26T21:07:33.804Z,100095.91
2022-08-26T21:10:02.874Z,100080.06
2022-08-26T21:12:32.236Z,100095.84
2022-08-26T21:15:01.349Z,100084.81
2022-08-26T21:17:29.971Z,100080.28
2022-08-26T21:19:58.642Z,100079.13
2022-08-26T21:22:27.051Z,100100.31
2022-08-26T21:24:55.624Z,100088.31
2022-08-26T21:27:26.316Z,100081.53
2022-08-26T21:29:55.620Z,100094.41
2022-08-26T21:32:24.583Z,100065.94
2022-08-26T21:34:57.723Z,100097.34
2022-08-26T21:37:28.610Z,100103.66
2022-08-26T21:39:59.404Z,100111.88
2022-08-26T21:42:28.549Z,100091.53
2022-08-26T21:44:57.096Z,100106.09
2022-08-26T21:47:25.653Z,100113.84
2022-08-26T21:49:57.191Z,100128.22
2022-08-26T21:52:27.025Z,100102.75
2022-08-26T21:55:03.140Z,100120.66
2022-08-26T21:57:37.675Z,100107.94
2022-08-26T22:00:13.778Z,100130.97
2022-08-26T22:02:42.436Z,100116.06
2022-08-26T22:05:11.623Z,100122.47
2022-08-26T22:07:40.278Z,100140.63
2022-08-26T22:10:09.629Z,100137.88
2022-08-26T22:12:38.779Z,100149.34
2022-08-26T22:15:08.236Z,100139.88
2022-08-26T22:17:36.882Z,100143.00
2022-08-26T22:20:07.430Z,100167.16
2022-08-26T22:22:45.854Z,100160.63
2022-08-26T22:25:14.593Z,100147.50
2022-08-26T22:27:43.552Z,100139.72
2022-08-26T22:30:12.631Z,100162.47
2022-08-26T22:32:41.511Z,100152.53
2022-08-26T22:35:29.323Z,100146.34
2022-08-26T22:37:59.659Z,100169.78
2022-08-26T22:40:31.130Z,100154.66
2022-08-26T22:43:00.251Z,100118.53
2022-08-26T22:45:34.407Z,100171.44
2022-08-26T22:48:05.830Z,100174.22
2022-08-26T22:50:34.537Z,100158.09
2022-08-26T22:53:03.349Z,100147.47
2022-08-26T22:55:32.010Z,100172.47
2022-08-26T22:58:01.056Z,100165.97
2022-08-26T23:00:31.987Z,100165.97
2022-08-26T23:03:02.069Z,100164.53
2022-08-26T23:05:31.801Z,100166.94
2022-08-26T23:08:01.466Z,100167.47
2022-08-26T23:10:31.129Z,100138.13
2022-08-26T23:12:59.867Z,100169.75
2022-08-26T23:15:29.262Z,100172.66
2022-08-26T23:17:59.118Z,100184.09
2022-08-26T23:20:29.033Z,100205.25
2022-08-26T23:23:03.576Z,100204.66
2022-08-26T23:25:33.452Z,100184.53
2022-08-26T23:28:02.886Z,100198.75
2022-08-26T23:30:33.266Z,100208.59
2022-08-26T23:33:01.740Z,100195.13
2022-08-26T23:35:30.825Z,100223.94
2022-08-26T23:37:59.442Z,100230.41
2022-08-26T23:40:33.480Z,100231.38
2022-08-26T23:43:06.340Z,100232.72
2022-08-26T23:45:36.427Z,100243.53
2022-08-26T23:48:10.763Z,100237.72
2022-08-26T23:50:57.668Z,100253.31
2022-08-26T23:53:26.468Z,100263.75
2022-08-26T23:55:55.417Z,100239.06
2022-08-26T23:58:24.060Z,100244.41
